sensor_id;sensor_type;location;lat;lon;timestamp;temperature;humidity
9943;DHT22;5010;45.080;7.634;2024-03-08T00:00:24;6.40;1.00
9943;DHT22;5010;45.080;7.634;2024-03-08T00:02:52;6.40;1.00
9943;DHT22;5010;45.080;7.634;2024-03-08T00:05:20;6.40;1.00
9943;DHT22;5010;45.080;7.634;2024-03-08T00:07:48;6.30;1.00
9943;DHT22;5010;45.080;7.634;2024-03-08T00:10:15;6.30;1.00
9943;DHT22;5010;45.080;7.634;2024-03-08T00:12:44;6.30;1.00
9943;DHT22;5010;45.080;7.634;2024-03-08T00:15:15;6.30;1.00
9943;DHT22;5010;45.080;7.634;2024-03-08T00:17:43;6.30;1.00
9943;DHT22;5010;45.080;7.634;2024-03-08T00:20:11;6.20;1.00
9943;DHT22;5010;45.080;7.634;2024-03-08T00:22:39;6.30;1.00
9943;DHT22;5010;45.080;7.634;2024-03-08T00:25:08;6.30;1.00
9943;DHT22;5010;45.080;7.634;2024-03-08T00:27:36;6.30;1.00
9943;DHT22;5010;45.080;7.634;2024-03-08T00:30:05;6.40;1.00
9943;DHT22;5010;45.080;7.634;2024-03-08T00:32:34;6.60;1.00
9943;DHT22;5010;45.080;7.634;2024-03-08T00:35:03;6.60;1.00
9943;DHT22;5010;45.080;7.634;2024-03-08T00:37:33;6.60;1.00
9943;DHT22;5010;45.080;7.634;2024-03-08T00:40:02;6.50;1.00
9943;DHT22;5010;45.080;7.634;2024-03-08T00:42:30;6.60;1.00
9943;DHT22;5010;45.080;7.634;2024-03-08T00:44:59;6.60;1.00
9943;DHT22;5010;45.080;7.634;2024-03-08T00:47:27;6.60;1.00
9943;DHT22;5010;45.080;7.634;2024-03-08T00:49:56;6.50;1.00
9943;DHT22;5010;45.080;7.634;2024-03-08T00:52:24;6.50;1.00
9943;DHT22;5010;45.080;7.634;2024-03-08T00:54:52;6.50;1.00
9943;DHT22;5010;45.080;7.634;2024-03-08T00:57:19;6.40;1.00
9943;DHT22;5010;45.080;7.634;2024-03-08T00:59:48;6.40;1.00
9943;DHT22;5010;45.080;7.634;2024-03-08T01:02:16;6.40;1.00
9943;DHT22;5010;45.080;7.634;2024-03-08T01:04:45;6.40;1.00
9943;DHT22;5010;45.080;7.634;2024-03-08T01:07:14;6.30;1.00
9943;DHT22;5010;45.080;7.634;2024-03-08T01:09:42;6.40;1.00
9943;DHT22;5010;45.080;7.634;2024-03-08T01:12:10;6.50;1.00
9943;DHT22;5010;45.080;7.634;2024-03-08T01:14:38;6.50;1.00
9943;DHT22;5010;45.080;7.634;2024-03-08T01:17:06;6.50;1.00
9943;DHT22;5010;45.080;7.634;2024-03-08T01:19:35;6.50;1.00
9943;DHT22;5010;45.080;7.634;2024-03-08T01:22:03;6.50;1.00
9943;DHT22;5010;45.080;7.634;2024-03-08T01:24:32;6.50;1.00
9943;DHT22;5010;45.080;7.634;2024-03-08T01:27:01;6.40;1.00
9943;DHT22;5010;45.080;7.634;2024-03-08T01:29:28;6.40;1.00
9943;DHT22;5010;45.080;7.634;2024-03-08T01:31:56;6.40;1.00
9943;DHT22;5010;45.080;7.634;2024-03-08T01:34:27;6.40;1.00
9943;DHT22;5010;45.080;7.634;2024-03-08T01:36:55;6.40;1.00
9943;DHT22;5010;45.080;7.634;2024-03-08T01:39:23;6.40;1.00
9943;DHT22;5010;45.080;7.634;2024-03-08T01:41:53;6.40;1.00
9943;DHT22;5010;45.080;7.634;2024-03-08T01:44:21;6.50;1.00
9943;DHT22;5010;45.080;7.634;2024-03-08T01:46:50;6.50;1.00
9943;DHT22;5010;45.080;7.634;2024-03-08T01:49:19;6.60;1.00
9943;DHT22;5010;45.080;7.634;2024-03-08T01:51:48;6.60;1.00
9943;DHT22;5010;45.080;7.634;2024-03-08T01:54:18;6.60;1.00
9943;DHT22;5010;45.080;7.634;2024-03-08T01:56:48;6.70;1.00
9943;DHT22;5010;45.080;7.634;2024-03-08T01:59:17;6.70;1.00
9943;DHT22;5010;45.080;7.634;2024-03-08T02:01:45;6.70;1.00
9943;DHT22;5010;45.080;7.634;2024-03-08T02:04:14;6.70;1.00
9943;DHT22;5010;45.080;7.634;2024-03-08T02:06:42;6.60;1.00
9943;DHT22;5010;45.080;7.634;2024-03-08T02:09:11;6.70;1.00
9943;DHT22;5010;45.080;7.634;2024-03-08T02:11:40;6.60;1.00
9943;DHT22;5010;45.080;7.634;2024-03-08T02:14:09;6.70;1.00
9943;DHT22;5010;45.080;7.634;2024-03-08T02:16:38;6.70;1.00
9943;DHT22;5010;45.080;7.634;2024-03-08T02:19:06;6.70;1.00
9943;DHT22;5010;45.080;7.634;2024-03-08T02:21:37;6.80;1.00
9943;DHT22;5010;45.080;7.634;2024-03-08T02:24:06;6.80;1.00
9943;DHT22;5010;45.080;7.634;2024-03-08T02:26:34;6.80;1.00
9943;DHT22;5010;45.080;7.634;2024-03-08T02:29:02;6.80;1.00
9943;DHT22;5010;45.080;7.634;2024-03-08T02:31:31;6.90;1.00
9943;DHT22;5010;45.080;7.634;2024-03-08T02:33:59;7.00;1.00
9943;DHT22;5010;45.080;7.634;2024-03-08T02:36:26;7.10;1.00
9943;DHT22;5010;45.080;7.634;2024-03-08T02:38:56;7.10;1.00
9943;DHT22;5010;45.080;7.634;2024-03-08T02:41:24;7.00;1.00
9943;DHT22;5010;45.080;7.634;2024-03-08T02:43:51;7.00;1.00
9943;DHT22;5010;45.080;7.634;2024-03-08T02:46:21;7.00;1.00
9943;DHT22;5010;45.080;7.634;2024-03-08T02:48:49;6.90;1.00
9943;DHT22;5010;45.080;7.634;2024-03-08T02:51:17;6.90;1.00
9943;DHT22;5010;45.080;7.634;2024-03-08T02:53:46;7.00;1.00
9943;DHT22;5010;45.080;7.634;2024-03-08T02:56:16;7.00;1.00
9943;DHT22;5010;45.080;7.634;2024-03-08T02:58:44;7.00;1.00
9943;DHT22;5010;45.080;7.634;2024-03-08T03:01:14;7.10;1.00
9943;DHT22;5010;45.080;7.634;2024-03-08T03:03:42;7.10;1.00
9943;DHT22;5010;45.080;7.634;2024-03-08T03:06:10;7.20;1.00
9943;DHT22;5010;45.080;7.634;2024-03-08T03:08:38;7.30;1.00
9943;DHT22;5010;45.080;7.634;2024-03-08T03:11:10;7.40;1.00
9943;DHT22;5010;45.080;7.634;2024-03-08T03:13:41;7.50;1.00
9943;DHT22;5010;45.080;7.634;2024-03-08T03:16:17;7.50;1.00
9943;DHT22;5010;45.080;7.634;2024-03-08T03:18:46;7.50;1.00
9943;DHT22;5010;45.080;7.634;2024-03-08T03:21:14;7.40;1.00
9943;DHT22;5010;45.080;7.634;2024-03-08T03:23:43;7.30;1.00
9943;DHT22;5010;45.080;7.634;2024-03-08T03:26:11;7.20;1.00
9943;DHT22;5010;45.080;7.634;2024-03-08T03:28:40;7.10;1.00
9943;DHT22;5010;45.080;7.634;2024-03-08T03:31:09;7.10;1.00
9943;DHT22;5010;45.080;7.634;2024-03-08T03:33:40;7.10;1.00
9943;DHT22;5010;45.080;7.634;2024-03-08T03:36:07;7.20;1.00
9943;DHT22;5010;45.080;7.634;2024-03-08T03:38:36;7.10;1.00
9943;DHT22;5010;45.080;7.634;2024-03-08T03:41:04;7.10;1.00
9943;DHT22;5010;45.080;7.634;2024-03-08T03:43:36;7.10;1.00
9943;DHT22;5010;45.080;7.634;2024-03-08T03:46:07;7.20;1.00
9943;DHT22;5010;45.080;7.634;2024-03-08T03:48:36;7.30;1.00
9943;DHT22;5010;45.080;7.634;2024-03-08T03:51:04;7.40;1.00
9943;DHT22;5010;45.080;7.634;2024-03-08T03:53:32;7.40;1.00
9943;DHT22;5010;45.080;7.634;2024-03-08T03:56:00;7.40;1.00
9943;DHT22;5010;45.080;7.634;2024-03-08T03:58:27;7.50;1.00
9943;DHT22;5010;45.080;7.634;2024-03-08T04:00:55;7.50;1.00
9943;DHT22;5010;45.080;7.634;2024-03-08T04:03:24;7.50;1.00
9943;DHT22;5010;45.080;7.634;2024-03-08T04:05:52;7.50;1.00
9943;DHT22;5010;45.080;7.634;2024-03-08T04:08:20;7.50;1.00
9943;DHT22;5010;45.080;7.634;2024-03-08T04:10:50;7.50;1.00
9943;DHT22;5010;45.080;7.634;2024-03-08T04:13:18;7.50;1.00
9943;DHT22;5010;45.080;7.634;2024-03-08T04:15:46;7.40;1.00
9943;DHT22;5010;45.080;7.634;2024-03-08T04:18:14;7.40;1.00
9943;DHT22;5010;45.080;7.634;2024-03-08T04:20:44;7.40;1.00
9943;DHT22;5010;45.080;7.634;2024-03-08T04:23:11;7.40;1.00
9943;DHT22;5010;45.080;7.634;2024-03-08T04:25:39;7.50;1.00
9943;DHT22;5010;45.080;7.634;2024-03-08T04:28:08;7.50;1.00
9943;DHT22;5010;45.080;7.634;2024-03-08T04:30:38;7.50;1.00
9943;DHT22;5010;45.080;7.634;2024-03-08T04:33:06;7.40;1.00
9943;DHT22;5010;45.080;7.634;2024-03-08T04:35:34;7.40;1.00
9943;DHT22;5010;45.080;7.634;2024-03-08T04:38:04;7.40;1.00
9943;DHT22;5010;45.080;7.634;2024-03-08T04:40:32;7.40;1.00
9943;DHT22;5010;45.080;7.634;2024-03-08T04:43:00;7.40;1.00
9943;DHT22;5010;45.080;7.634;2024-03-08T04:45:28;7.40;1.00
9943;DHT22;5010;45.080;7.634;2024-03-08T04:47:56;7.40;1.00
9943;DHT22;5010;45.080;7.634;2024-03-08T04:50:24;7.40;1.00
9943;DHT22;5010;45.080;7.634;2024-03-08T04:52:55;7.40;1.00
9943;DHT22;5010;45.080;7.634;2024-03-08T04:55:24;7.30;1.00
9943;DHT22;5010;45.080;7.634;2024-03-08T04:57:52;7.40;1.00
9943;DHT22;5010;45.080;7.634;2024-03-08T05:00:19;7.40;1.00
9943;DHT22;5010;45.080;7.634;2024-03-08T08:02:42;7.70;1.00
9943;DHT22;5010;45.080;7.634;2024-03-08T09:32:20;8.70;1.00
9943;DHT22;5010;45.080;7.634;2024-03-08T09:34:48;8.80;1.00
9943;DHT22;5010;45.080;7.634;2024-03-08T09:37:16;8.80;1.00
9943;DHT22;5010;45.080;7.634;2024-03-08T09:39:44;8.60;1.00
9943;DHT22;5010;45.080;7.634;2024-03-08T09:42:12;8.50;1.00
9943;DHT22;5010;45.080;7.634;2024-03-08T09:44:44;8.50;1.00
9943;DHT22;5010;45.080;7.634;2024-03-08T09:47:14;8.40;1.00
9943;DHT22;5010;45.080;7.634;2024-03-08T09:49:43;8.30;1.00
9943;DHT22;5010;45.080;7.634;2024-03-08T09:52:12;8.20;1.00
9943;DHT22;5010;45.080;7.634;2024-03-08T09:54:40;8.20;1.00
9943;DHT22;5010;45.080;7.634;2024-03-08T09:57:11;8.20;1.00
9943;DHT22;5010;45.080;7.634;2024-03-08T09:59:39;8.20;1.00
9943;DHT22;5010;45.080;7.634;2024-03-08T10:02:16;8.10;1.00
9943;DHT22;5010;45.080;7.634;2024-03-08T10:04:45;8.00;1.00
9943;DHT22;5010;45.080;7.634;2024-03-08T10:07:16;7.90;1.00
9943;DHT22;5010;45.080;7.634;2024-03-08T10:09:44;7.80;1.00
9943;DHT22;5010;45.080;7.634;2024-03-08T10:12:16;7.80;1.00
9943;DHT22;5010;45.080;7.634;2024-03-08T10:14:46;7.70;1.00
9943;DHT22;5010;45.080;7.634;2024-03-08T10:17:14;7.70;1.00
9943;DHT22;5010;45.080;7.634;2024-03-08T10:19:51;7.80;1.00
9943;DHT22;5010;45.080;7.634;2024-03-08T10:22:19;7.70;1.00
9943;DHT22;5010;45.080;7.634;2024-03-08T10:24:46;7.70;1.00
9943;DHT22;5010;45.080;7.634;2024-03-08T10:27:16;7.70;1.00
9943;DHT22;5010;45.080;7.634;2024-03-08T10:29:48;7.70;1.00
9943;DHT22;5010;45.080;7.634;2024-03-08T10:32:17;7.80;1.00
9943;DHT22;5010;45.080;7.634;2024-03-08T10:34:45;7.80;1.00
9943;DHT22;5010;45.080;7.634;2024-03-08T10:37:21;7.90;1.00
9943;DHT22;5010;45.080;7.634;2024-03-08T10:39:57;7.90;1.00
9943;DHT22;5010;45.080;7.634;2024-03-08T10:42:29;7.90;1.00
9943;DHT22;5010;45.080;7.634;2024-03-08T10:45:06;7.90;1.00
9943;DHT22;5010;45.080;7.634;2024-03-08T10:47:41;7.90;1.00
9943;DHT22;5010;45.080;7.634;2024-03-08T10:50:11;7.80;1.00
9943;DHT22;5010;45.080;7.634;2024-03-08T10:52:50;7.80;1.00
9943;DHT22;5010;45.080;7.634;2024-03-08T10:55:18;7.70;1.00
9943;DHT22;5010;45.080;7.634;2024-03-08T10:57:46;7.80;1.00
9943;DHT22;5010;45.080;7.634;2024-03-08T11:00:14;7.70;1.00
9943;DHT22;5010;45.080;7.634;2024-03-08T11:02:45;7.80;1.00
9943;DHT22;5010;45.080;7.634;2024-03-08T11:05:32;7.70;1.00
9943;DHT22;5010;45.080;7.634;2024-03-08T11:18:08;7.60;1.00
9943;DHT22;5010;45.080;7.634;2024-03-08T11:20:36;7.70;1.00
9943;DHT22;5010;45.080;7.634;2024-03-08T11:23:05;7.90;1.00
9943;DHT22;5010;45.080;7.634;2024-03-08T11:25:34;8.10;1.00
9943;DHT22;5010;45.080;7.634;2024-03-08T11:28:12;8.20;1.00
9943;DHT22;5010;45.080;7.634;2024-03-08T11:33:32;8.40;1.00
9943;DHT22;5010;45.080;7.634;2024-03-08T11:36:03;8.50;1.00
9943;DHT22;5010;45.080;7.634;2024-03-08T11:38:40;8.50;1.00
9943;DHT22;5010;45.080;7.634;2024-03-08T11:41:10;8.50;1.00
9943;DHT22;5010;45.080;7.634;2024-03-08T11:43:40;8.50;1.00
9943;DHT22;5010;45.080;7.634;2024-03-08T11:46:08;8.50;1.00
9943;DHT22;5010;45.080;7.634;2024-03-08T11:48:38;8.50;1.00
9943;DHT22;5010;45.080;7.634;2024-03-08T11:51:08;8.40;1.00
9943;DHT22;5010;45.080;7.634;2024-03-08T11:53:37;8.40;1.00
9943;DHT22;5010;45.080;7.634;2024-03-08T11:56:07;8.40;1.00
9943;DHT22;5010;45.080;7.634;2024-03-08T11:58:35;8.30;1.00
9943;DHT22;5010;45.080;7.634;2024-03-08T12:01:04;8.30;1.00
9943;DHT22;5010;45.080;7.634;2024-03-08T12:03:33;8.20;1.00
9943;DHT22;5010;45.080;7.634;2024-03-08T12:06:03;8.20;1.00
9943;DHT22;5010;45.080;7.634;2024-03-08T12:08:31;8.10;1.00
9943;DHT22;5010;45.080;7.634;2024-03-08T12:10:59;8.00;1.00
9943;DHT22;5010;45.080;7.634;2024-03-08T12:13:27;8.00;1.00
9943;DHT22;5010;45.080;7.634;2024-03-08T12:15:57;8.10;1.00
9943;DHT22;5010;45.080;7.634;2024-03-08T12:18:26;8.30;1.00
9943;DHT22;5010;45.080;7.634;2024-03-08T12:21:07;8.30;1.00
9943;DHT22;5010;45.080;7.634;2024-03-08T12:23:35;8.30;1.00
9943;DHT22;5010;45.080;7.634;2024-03-08T12:26:11;8.30;1.00
9943;DHT22;5010;45.080;7.634;2024-03-08T12:28:40;8.20;1.00
9943;DHT22;5010;45.080;7.634;2024-03-08T12:31:08;8.20;1.00
9943;DHT22;5010;45.080;7.634;2024-03-08T12:33:46;8.10;1.00
9943;DHT22;5010;45.080;7.634;2024-03-08T12:36:17;8.00;1.00
9943;DHT22;5010;45.080;7.634;2024-03-08T12:38:46;7.90;1.00
9943;DHT22;5010;45.080;7.634;2024-03-08T12:41:14;7.80;1.00
9943;DHT22;5010;45.080;7.634;2024-03-08T12:43:43;7.80;1.00
9943;DHT22;5010;45.080;7.634;2024-03-08T12:46:14;7.80;1.00
9943;DHT22;5010;45.080;7.634;2024-03-08T12:48:43;7.80;1.00
9943;DHT22;5010;45.080;7.634;2024-03-08T12:51:13;7.80;1.00
9943;DHT22;5010;45.080;7.634;2024-03-08T12:53:43;7.80;1.00
9943;DHT22;5010;45.080;7.634;2024-03-08T12:56:12;7.80;1.00
9943;DHT22;5010;45.080;7.634;2024-03-08T12:58:40;7.80;1.00
9943;DHT22;5010;45.080;7.634;2024-03-08T13:01:09;7.90;1.00
9943;DHT22;5010;45.080;7.634;2024-03-08T13:03:38;7.90;1.00
9943;DHT22;5010;45.080;7.634;2024-03-08T13:06:06;7.80;1.00
9943;DHT22;5010;45.080;7.634;2024-03-08T13:08:34;7.80;1.00
9943;DHT22;5010;45.080;7.634;2024-03-08T13:11:06;7.80;1.00
9943;DHT22;5010;45.080;7.634;2024-03-08T13:13:37;7.80;1.00
9943;DHT22;5010;45.080;7.634;2024-03-08T13:16:06;7.90;1.00
9943;DHT22;5010;45.080;7.634;2024-03-08T13:18:35;7.90;1.00
9943;DHT22;5010;45.080;7.634;2024-03-08T13:21:03;8.00;1.00
9943;DHT22;5010;45.080;7.634;2024-03-08T13:23:36;8.00;1.00
9943;DHT22;5010;45.080;7.634;2024-03-08T13:26:08;8.10;1.00
9943;DHT22;5010;45.080;7.634;2024-03-08T13:28:38;8.10;1.00
9943;DHT22;5010;45.080;7.634;2024-03-08T13:31:06;8.20;1.00
9943;DHT22;5010;45.080;7.634;2024-03-08T13:33:36;8.30;1.00
9943;DHT22;5010;45.080;7.634;2024-03-08T13:36:06;8.30;1.00
9943;DHT22;5010;45.080;7.634;2024-03-08T13:38:41;8.40;1.00
9943;DHT22;5010;45.080;7.634;2024-03-08T13:41:13;8.40;1.00
9943;DHT22;5010;45.080;7.634;2024-03-08T13:43:43;8.40;1.00
9943;DHT22;5010;45.080;7.634;2024-03-08T13:46:11;8.30;1.00
9943;DHT22;5010;45.080;7.634;2024-03-08T13:48:38;8.30;1.00
9943;DHT22;5010;45.080;7.634;2024-03-08T13:51:07;8.30;1.00
9943;DHT22;5010;45.080;7.634;2024-03-08T13:53:36;8.30;1.00
9943;DHT22;5010;45.080;7.634;2024-03-08T13:56:05;8.20;1.00
9943;DHT22;5010;45.080;7.634;2024-03-08T13:58:34;8.10;1.00
9943;DHT22;5010;45.080;7.634;2024-03-08T14:01:02;8.10;1.00
9943;DHT22;5010;45.080;7.634;2024-03-08T14:03:37;8.10;1.00
9943;DHT22;5010;45.080;7.634;2024-03-08T14:06:08;8.00;1.00
9943;DHT22;5010;45.080;7.634;2024-03-08T14:08:35;7.90;1.00
9943;DHT22;5010;45.080;7.634;2024-03-08T14:11:04;7.90;1.00
9943;DHT22;5010;45.080;7.634;2024-03-08T14:13:43;7.90;1.00
9943;DHT22;5010;45.080;7.634;2024-03-08T14:16:11;7.90;1.00
9943;DHT22;5010;45.080;7.634;2024-03-08T14:18:39;7.90;1.00
9943;DHT22;5010;45.080;7.634;2024-03-08T14:21:07;7.90;1.00
9943;DHT22;5010;45.080;7.634;2024-03-08T14:23:36;7.90;1.00
9943;DHT22;5010;45.080;7.634;2024-03-08T14:26:04;7.90;1.00
9943;DHT22;5010;45.080;7.634;2024-03-08T14:28:33;7.90;1.00
9943;DHT22;5010;45.080;7.634;2024-03-08T14:31:03;7.90;1.00
9943;DHT22;5010;45.080;7.634;2024-03-08T14:33:36;7.80;1.00
9943;DHT22;5010;45.080;7.634;2024-03-08T14:36:05;7.70;1.00
9943;DHT22;5010;45.080;7.634;2024-03-08T14:38:34;7.70;1.00
9943;DHT22;5010;45.080;7.634;2024-03-08T14:41:04;7.70;1.00
9943;DHT22;5010;45.080;7.634;2024-03-08T14:43:33;7.60;1.00
9943;DHT22;5010;45.080;7.634;2024-03-08T14:46:03;7.50;1.00
9943;DHT22;5010;45.080;7.634;2024-03-08T14:48:30;7.50;1.00
9943;DHT22;5010;45.080;7.634;2024-03-08T14:50:58;7.40;1.00
9943;DHT22;5010;45.080;7.634;2024-03-08T14:53:26;7.30;1.00
9943;DHT22;5010;45.080;7.634;2024-03-08T14:55:54;7.10;1.00
9943;DHT22;5010;45.080;7.634;2024-03-08T14:58:23;7.00;1.00
9943;DHT22;5010;45.080;7.634;2024-03-08T15:00:51;7.00;1.00
9943;DHT22;5010;45.080;7.634;2024-03-08T15:03:23;6.90;1.00
9943;DHT22;5010;45.080;7.634;2024-03-08T15:05:52;7.00;1.00
9943;DHT22;5010;45.080;7.634;2024-03-08T15:08:20;7.00;1.00
9943;DHT22;5010;45.080;7.634;2024-03-08T15:10:50;7.00;1.00
9943;DHT22;5010;45.080;7.634;2024-03-08T15:13:20;6.90;1.00
9943;DHT22;5010;45.080;7.634;2024-03-08T15:15:53;6.90;1.00
9943;DHT22;5010;45.080;7.634;2024-03-08T15:18:24;6.90;1.00
9943;DHT22;5010;45.080;7.634;2024-03-08T15:20:56;6.80;1.00
9943;DHT22;5010;45.080;7.634;2024-03-08T15:23:24;6.80;1.00
9943;DHT22;5010;45.080;7.634;2024-03-08T15:25:52;6.80;1.00
9943;DHT22;5010;45.080;7.634;2024-03-08T15:28:20;6.70;1.00
9943;DHT22;5010;45.080;7.634;2024-03-08T15:30:53;6.60;1.00
9943;DHT22;5010;45.080;7.634;2024-03-08T15:33:22;6.60;1.00
9943;DHT22;5010;45.080;7.634;2024-03-08T15:35:54;6.60;1.00
9943;DHT22;5010;45.080;7.634;2024-03-08T15:38:26;6.50;1.00
9943;DHT22;5010;45.080;7.634;2024-03-08T15:40:55;6.50;1.00
9943;DHT22;5010;45.080;7.634;2024-03-08T15:43:22;6.60;1.00
9943;DHT22;5010;45.080;7.634;2024-03-08T15:45:51;6.60;1.00
9943;DHT22;5010;45.080;7.634;2024-03-08T15:48:20;6.60;1.00
9943;DHT22;5010;45.080;7.634;2024-03-08T15:50:49;6.70;1.00
9943;DHT22;5010;45.080;7.634;2024-03-08T15:53:18;6.60;1.00
9943;DHT22;5010;45.080;7.634;2024-03-08T15:55:46;6.40;1.00
9943;DHT22;5010;45.080;7.634;2024-03-08T15:58:16;6.20;1.00
9943;DHT22;5010;45.080;7.634;2024-03-08T16:00:44;6.10;1.00
9943;DHT22;5010;45.080;7.634;2024-03-08T16:03:15;6.10;1.00
9943;DHT22;5010;45.080;7.634;2024-03-08T16:05:43;6.10;1.00
9943;DHT22;5010;45.080;7.634;2024-03-08T16:08:11;6.00;1.00
9943;DHT22;5010;45.080;7.634;2024-03-08T16:10:44;6.00;1.00
9943;DHT22;5010;45.080;7.634;2024-03-08T16:13:15;6.00;1.00
9943;DHT22;5010;45.080;7.634;2024-03-08T16:15:44;6.10;1.00
9943;DHT22;5010;45.080;7.634;2024-03-08T16:18:12;6.10;1.00
9943;DHT22;5010;45.080;7.634;2024-03-08T16:20:40;6.10;1.00
9943;DHT22;5010;45.080;7.634;2024-03-08T16:23:09;6.00;1.00
9943;DHT22;5010;45.080;7.634;2024-03-08T16:25:37;5.80;1.00
9943;DHT22;5010;45.080;7.634;2024-03-08T16:28:09;5.70;1.00
9943;DHT22;5010;45.080;7.634;2024-03-08T16:30:37;5.60;1.00
9943;DHT22;5010;45.080;7.634;2024-03-08T16:33:06;5.50;1.00
9943;DHT22;5010;45.080;7.634;2024-03-08T16:35:34;5.50;1.00
9943;DHT22;5010;45.080;7.634;2024-03-08T16:38:05;5.40;1.00
9943;DHT22;5010;45.080;7.634;2024-03-08T16:40:33;5.40;1.00
9943;DHT22;5010;45.080;7.634;2024-03-08T16:43:03;5.50;1.00
9943;DHT22;5010;45.080;7.634;2024-03-08T16:45:32;5.50;1.00
9943;DHT22;5010;45.080;7.634;2024-03-08T16:48:00;5.60;1.00
9943;DHT22;5010;45.080;7.634;2024-03-08T16:50:29;5.50;1.00
9943;DHT22;5010;45.080;7.634;2024-03-08T16:52:58;5.40;1.00
9943;DHT22;5010;45.080;7.634;2024-03-08T16:55:27;5.40;1.00
9943;DHT22;5010;45.080;7.634;2024-03-08T16:57:56;5.30;1.00
9943;DHT22;5010;45.080;7.634;2024-03-08T17:00:25;5.30;1.00
9943;DHT22;5010;45.080;7.634;2024-03-08T17:02:57;5.20;1.00
9943;DHT22;5010;45.080;7.634;2024-03-08T17:05:26;5.20;1.00
9943;DHT22;5010;45.080;7.634;2024-03-08T17:07:55;5.30;1.00
9943;DHT22;5010;45.080;7.634;2024-03-08T17:10:24;5.40;1.00
9943;DHT22;5010;45.080;7.634;2024-03-08T17:12:53;5.60;1.00
9943;DHT22;5010;45.080;7.634;2024-03-08T17:15:25;5.60;1.00
9943;DHT22;5010;45.080;7.634;2024-03-08T17:17:56;5.70;1.00
9943;DHT22;5010;45.080;7.634;2024-03-08T17:20:26;5.80;1.00
9943;DHT22;5010;45.080;7.634;2024-03-08T17:22:55;5.80;1.00
9943;DHT22;5010;45.080;7.634;2024-03-08T17:25:24;5.70;1.00
9943;DHT22;5010;45.080;7.634;2024-03-08T17:27:53;5.80;1.00
9943;DHT22;5010;45.080;7.634;2024-03-08T17:30:23;5.90;1.00
9943;DHT22;5010;45.080;7.634;2024-03-08T17:32:53;5.90;1.00
9943;DHT22;5010;45.080;7.634;2024-03-08T17:35:24;5.90;1.00
9943;DHT22;5010;45.080;7.634;2024-03-08T17:37:53;5.90;1.00
9943;DHT22;5010;45.080;7.634;2024-03-08T17:40:24;5.80;1.00
9943;DHT22;5010;45.080;7.634;2024-03-08T17:42:53;5.70;1.00
9943;DHT22;5010;45.080;7.634;2024-03-08T17:45:24;5.60;1.00
9943;DHT22;5010;45.080;7.634;2024-03-08T17:47:54;5.50;1.00
9943;DHT22;5010;45.080;7.634;2024-03-08T19:51:26;5.90;1.00
9943;DHT22;5010;45.080;7.634;2024-03-08T19:53:56;5.80;1.00
9943;DHT22;5010;45.080;7.634;2024-03-08T19:56:23;5.70;1.00
9943;DHT22;5010;45.080;7.634;2024-03-08T19:58:51;5.50;1.00
9943;DHT22;5010;45.080;7.634;2024-03-08T20:01:21;5.40;1.00
9943;DHT22;5010;45.080;7.634;2024-03-08T20:03:49;5.40;1.00
9943;DHT22;5010;45.080;7.634;2024-03-08T20:06:17;5.50;1.00
9943;DHT22;5010;45.080;7.634;2024-03-08T20:08:46;5.60;1.00
9943;DHT22;5010;45.080;7.634;2024-03-08T20:11:14;5.80;1.00
9943;DHT22;5010;45.080;7.634;2024-03-08T20:13:41;5.90;1.00
9943;DHT22;5010;45.080;7.634;2024-03-08T20:16:13;5.90;1.00
9943;DHT22;5010;45.080;7.634;2024-03-08T20:18:40;6.00;1.00
9943;DHT22;5010;45.080;7.634;2024-03-08T20:21:08;6.00;1.00
9943;DHT22;5010;45.080;7.634;2024-03-08T20:23:38;6.00;1.00
9943;DHT22;5010;45.080;7.634;2024-03-08T20:26:08;6.10;1.00
9943;DHT22;5010;45.080;7.634;2024-03-08T20:28:41;6.10;1.00
9943;DHT22;5010;45.080;7.634;2024-03-08T20:31:11;6.10;1.00
9943;DHT22;5010;45.080;7.634;2024-03-08T20:33:39;6.10;1.00
9943;DHT22;5010;45.080;7.634;2024-03-08T20:36:09;6.10;1.00
9943;DHT22;5010;45.080;7.634;2024-03-08T20:38:37;6.00;1.00
9943;DHT22;5010;45.080;7.634;2024-03-08T20:41:08;6.10;1.00
9943;DHT22;5010;45.080;7.634;2024-03-08T20:43:37;6.10;1.00
9943;DHT22;5010;45.080;7.634;2024-03-08T20:46:05;6.00;1.00
9943;DHT22;5010;45.080;7.634;2024-03-08T20:48:33;5.80;1.00
9943;DHT22;5010;45.080;7.634;2024-03-08T20:51:03;5.70;1.00
9943;DHT22;5010;45.080;7.634;2024-03-08T20:53:32;5.70;1.00
9943;DHT22;5010;45.080;7.634;2024-03-08T22:57:10;5.50;1.00
9943;DHT22;5010;45.080;7.634;2024-03-08T23:26:39;5.40;1.00
9943;DHT22;5010;45.080;7.634;2024-03-08T23:29:07;5.50;1.00
9943;DHT22;5010;45.080;7.634;2024-03-08T23:31:35;5.60;1.00
9943;DHT22;5010;45.080;7.634;2024-03-08T23:34:04;5.60;1.00
9943;DHT22;5010;45.080;7.634;2024-03-08T23:36:33;5.60;1.00
9943;DHT22;5010;45.080;7.634;2024-03-08T23:39:01;5.50;1.00
9943;DHT22;5010;45.080;7.634;2024-03-08T23:41:30;5.50;1.00
9943;DHT22;5010;45.080;7.634;2024-03-08T23:44:00;5.50;1.00
9943;DHT22;5010;45.080;7.634;2024-03-08T23:46:31;5.50;1.00
9943;DHT22;5010;45.080;7.634;2024-03-08T23:49:00;5.40;1.00
9943;DHT22;5010;45.080;7.634;2024-03-08T23:51:28;5.30;1.00
9943;DHT22;5010;45.080;7.634;2024-03-08T23:53:57;5.30;1.00
9943;DHT22;5010;45.080;7.634;2024-03-08T23:56:26;5.40;1.00
9943;DHT22;5010;45.080;7.634;2024-03-08T23:58:56;5.40;1.00
